sensor_id;sensor_type;location;lat;lon;timestamp;pressure;altitude;pressure_sealevel;temperature;humidity
6524;BME280;3295;38.928;-77.052;2022-12-18T00:01:23;100406.97;;;9.60;45.83
6524;BME280;3295;38.928;-77.052;2022-12-18T00:03:52;100416.44;;;9.63;45.83
6524;BME280;3295;38.928;-77.052;2022-12-18T00:06:22;100415.28;;;9.56;44.29
6524;BME280;3295;38.928;-77.052;2022-12-18T00:08:50;100407.66;;;9.56;44.48
6524;BME280;3295;38.928;-77.052;2022-12-18T00:11:19;100411.19;;;9.60;45.15
6524;BME280;3295;38.928;-77.052;2022-12-18T00:13:48;100402.41;;;9.53;44.90
6524;BME280;3295;38.928;-77.052;2022-12-18T00:16:17;100404.97;;;9.53;44.98
6524;BME280;3295;38.928;-77.052;2022-12-18T00:18:46;100405.69;;;9.51;44.53
6524;BME280;3295;38.928;-77.052;2022-12-18T00:21:14;100408.28;;;9.52;44.34
6524;BME280;3295;38.928;-77.052;2022-12-18T00:23:44;100409.31;;;9.56;44.48
6524;BME280;3295;38.928;-77.052;2022-12-18T00:26:13;100411.88;;;9.56;43.78
6524;BME280;3295;38.928;-77.052;2022-12-18T00:28:41;100417.59;;;9.52;43.61
6524;BME280;3295;38.928;-77.052;2022-12-18T00:31:11;100415.72;;;9.48;44.11
6524;BME280;3295;38.928;-77.052;2022-12-18T00:33:39;100401.47;;;9.34;44.61
6524;BME280;3295;38.928;-77.052;2022-12-18T00:36:09;100407.34;;;9.33;44.07
6524;BME280;3295;38.928;-77.052;2022-12-18T00:38:37;100396.09;;;9.27;44.66
6524;BME280;3295;38.928;-77.052;2022-12-18T00:41:07;100409.09;;;9.34;45.69
6524;BME280;3295;38.928;-77.052;2022-12-18T00:43:36;100407.50;;;9.36;45.76
6524;BME280;3295;38.928;-77.052;2022-12-18T00:46:04;100406.72;;;9.37;44.48
6524;BME280;3295;38.928;-77.052;2022-12-18T00:48:32;100413.81;;;9.44;44.36
6524;BME280;3295;38.928;-77.052;2022-12-18T00:50:59;100400.59;;;9.51;44.37
6524;BME280;3295;38.928;-77.052;2022-12-18T00:53:27;100413.31;;;9.51;44.72
6524;BME280;3295;38.928;-77.052;2022-12-18T00:55:55;100423.56;;;9.52;43.78
6524;BME280;3295;38.928;-77.052;2022-12-18T00:58:24;100416.09;;;9.55;43.25
6524;BME280;3295;38.928;-77.052;2022-12-18T01:00:52;100422.94;;;9.56;42.82
6524;BME280;3295;38.928;-77.052;2022-12-18T01:03:19;100423.72;;;9.55;42.93
6524;BME280;3295;38.928;-77.052;2022-12-18T01:05:47;100432.88;;;9.52;43.39
6524;BME280;3295;38.928;-77.052;2022-12-18T01:08:15;100442.34;;;9.54;43.02
6524;BME280;3295;38.928;-77.052;2022-12-18T01:10:43;100433.16;;;9.58;43.01
6524;BME280;3295;38.928;-77.052;2022-12-18T01:13:10;100434.56;;;9.51;42.76
6524;BME280;3295;38.928;-77.052;2022-12-18T01:15:47;100447.06;;;9.47;43.13
6524;BME280;3295;38.928;-77.052;2022-12-18T01:18:14;100457.16;;;9.45;43.52
6524;BME280;3295;38.928;-77.052;2022-12-18T01:20:42;100466.03;;;9.36;43.92
6524;BME280;3295;38.928;-77.052;2022-12-18T01:23:10;100471.91;;;9.35;44.27
6524;BME280;3295;38.928;-77.052;2022-12-18T01:25:38;100472.88;;;9.37;44.65
6524;BME280;3295;38.928;-77.052;2022-12-18T01:28:06;100476.22;;;9.36;44.90
6524;BME280;3295;38.928;-77.052;2022-12-18T01:30:34;100477.53;;;9.45;43.87
6524;BME280;3295;38.928;-77.052;2022-12-18T01:33:04;100464.31;;;9.52;44.22
6524;BME280;3295;38.928;-77.052;2022-12-18T01:35:32;100466.31;;;9.59;43.14
6524;BME280;3295;38.928;-77.052;2022-12-18T01:37:59;100460.22;;;9.56;43.36
6524;BME280;3295;38.928;-77.052;2022-12-18T01:40:27;100465.44;;;9.59;43.25
6524;BME280;3295;38.928;-77.052;2022-12-18T01:42:55;100460.66;;;9.65;43.14
6524;BME280;3295;38.928;-77.052;2022-12-18T01:45:25;100464.00;;;9.64;43.09
6524;BME280;3295;38.928;-77.052;2022-12-18T01:47:55;100476.66;;;9.62;42.93
6524;BME280;3295;38.928;-77.052;2022-12-18T01:50:28;100468.78;;;9.58;42.63
6524;BME280;3295;38.928;-77.052;2022-12-18T01:53:01;100469.03;;;9.62;42.53
6524;BME280;3295;38.928;-77.052;2022-12-18T01:55:32;100459.22;;;9.70;42.65
6524;BME280;3295;38.928;-77.052;2022-12-18T01:58:03;100466.69;;;9.67;42.72
6524;BME280;3295;38.928;-77.052;2022-12-18T02:00:31;100464.31;;;9.70;42.96
6524;BME280;3295;38.928;-77.052;2022-12-18T02:02:59;100465.28;;;9.74;42.76
6524;BME280;3295;38.928;-77.052;2022-12-18T02:05:40;100470.63;;;9.78;42.91
6524;BME280;3295;38.928;-77.052;2022-12-18T02:08:15;100452.22;;;9.66;42.71
6524;BME280;3295;38.928;-77.052;2022-12-18T02:10:50;100449.75;;;9.50;43.67
6524;BME280;3295;38.928;-77.052;2022-12-18T02:13:26;100452.50;;;9.37;44.27
6524;BME280;3295;38.928;-77.052;2022-12-18T02:16:00;100458.91;;;9.46;43.09
6524;BME280;3295;38.928;-77.052;2022-12-18T02:18:34;100459.69;;;9.45;43.16
6524;BME280;3295;38.928;-77.052;2022-12-18T02:21:12;100457.28;;;9.31;43.83
6524;BME280;3295;38.928;-77.052;2022-12-18T02:23:50;100462.03;;;9.23;45.52
6524;BME280;3295;38.928;-77.052;2022-12-18T02:26:28;100455.63;;;9.13;45.74
6524;BME280;3295;38.928;-77.052;2022-12-18T02:29:02;100463.38;;;9.16;45.63
6524;BME280;3295;38.928;-77.052;2022-12-18T02:31:36;100461.19;;;9.06;47.24
6524;BME280;3295;38.928;-77.052;2022-12-18T02:34:08;100475.59;;;9.06;46.99
6524;BME280;3295;38.928;-77.052;2022-12-18T02:36:39;100478.38;;;9.10;47.99
6524;BME280;3295;38.928;-77.052;2022-12-18T02:39:10;100478.38;;;9.10;46.22
6524;BME280;3295;38.928;-77.052;2022-12-18T02:41:40;100479.31;;;9.12;44.80
6524;BME280;3295;38.928;-77.052;2022-12-18T02:44:13;100480.84;;;9.09;45.01
6524;BME280;3295;38.928;-77.052;2022-12-18T02:46:46;100483.31;;;9.07;44.02
6524;BME280;3295;38.928;-77.052;2022-12-18T02:49:33;100479.97;;;9.08;43.67
6524;BME280;3295;38.928;-77.052;2022-12-18T02:52:10;100480.28;;;9.14;43.76
6524;BME280;3295;38.928;-77.052;2022-12-18T02:54:54;100484.78;;;9.20;43.66
6524;BME280;3295;38.928;-77.052;2022-12-18T02:57:34;100487.72;;;9.27;43.32
6524;BME280;3295;38.928;-77.052;2022-12-18T03:00:08;100481.16;;;9.33;43.40
6524;BME280;3295;38.928;-77.052;2022-12-18T03:02:43;100473.59;;;9.34;42.98
6524;BME280;3295;38.928;-77.052;2022-12-18T03:05:15;100478.53;;;9.31;43.13
6524;BME280;3295;38.928;-77.052;2022-12-18T03:07:47;100481.00;;;9.30;43.02
6524;BME280;3295;38.928;-77.052;2022-12-18T03:10:20;100484.81;;;9.38;42.92
6524;BME280;3295;38.928;-77.052;2022-12-18T03:12:56;100481.63;;;9.42;43.13
6524;BME280;3295;38.928;-77.052;2022-12-18T03:15:29;100492.91;;;9.31;42.53
6524;BME280;3295;38.928;-77.052;2022-12-18T03:18:01;100491.50;;;9.36;42.80
6524;BME280;3295;38.928;-77.052;2022-12-18T03:20:33;100493.53;;;9.43;42.58
6524;BME280;3295;38.928;-77.052;2022-12-18T03:23:07;100488.47;;;9.43;43.18
6524;BME280;3295;38.928;-77.052;2022-12-18T03:25:40;100482.50;;;9.42;42.91
6524;BME280;3295;38.928;-77.052;2022-12-18T03:28:14;100481.47;;;9.39;43.20
6524;BME280;3295;38.928;-77.052;2022-12-18T03:30:46;100484.00;;;9.39;43.65
6524;BME280;3295;38.928;-77.052;2022-12-18T03:33:17;100483.22;;;9.40;43.91
6524;BME280;3295;38.928;-77.052;2022-12-18T03:35:46;100482.91;;;9.34;44.43
6524;BME280;3295;38.928;-77.052;2022-12-18T03:38:14;100494.59;;;9.30;44.74
6524;BME280;3295;38.928;-77.052;2022-12-18T03:40:53;100506.59;;;9.33;44.38
6524;BME280;3295;38.928;-77.052;2022-12-18T03:43:35;100505.66;;;9.31;44.35
6524;BME280;3295;38.928;-77.052;2022-12-18T03:46:09;100520.00;;;9.29;44.00
6524;BME280;3295;38.928;-77.052;2022-12-18T03:48:43;100519.25;;;9.31;43.20
6524;BME280;3295;38.928;-77.052;2022-12-18T03:51:16;100512.63;;;9.35;43.07
6524;BME280;3295;38.928;-77.052;2022-12-18T03:53:53;100513.00;;;9.24;43.30
6524;BME280;3295;38.928;-77.052;2022-12-18T03:56:29;100516.19;;;9.20;43.25
6524;BME280;3295;38.928;-77.052;2022-12-18T03:59:02;100515.56;;;9.08;43.11
6524;BME280;3295;38.928;-77.052;2022-12-18T04:01:34;100524.16;;;9.10;43.15
6524;BME280;3295;38.928;-77.052;2022-12-18T04:04:04;100522.72;;;9.15;42.83
6524;BME280;3295;38.928;-77.052;2022-12-18T04:06:36;100528.09;;;9.21;42.92
6524;BME280;3295;38.928;-77.052;2022-12-18T04:09:04;100528.53;;;9.31;42.44
6524;BME280;3295;38.928;-77.052;2022-12-18T04:11:32;100531.88;;;9.30;41.94
6524;BME280;3295;38.928;-77.052;2022-12-18T04:14:02;100537.94;;;9.32;41.88
6524;BME280;3295;38.928;-77.052;2022-12-18T04:16:30;100530.22;;;9.30;42.20
6524;BME280;3295;38.928;-77.052;2022-12-18T04:18:57;100525.09;;;9.29;43.07
6524;BME280;3295;38.928;-77.052;2022-12-18T04:21:25;100528.25;;;9.24;43.16
6524;BME280;3295;38.928;-77.052;2022-12-18T04:23:53;100535.91;;;9.24;43.26
6524;BME280;3295;38.928;-77.052;2022-12-18T04:26:20;100533.50;;;9.27;44.79
6524;BME280;3295;38.928;-77.052;2022-12-18T04:28:48;100531.59;;;9.23;45.56
6524;BME280;3295;38.928;-77.052;2022-12-18T04:31:17;100527.81;;;9.15;45.47
6524;BME280;3295;38.928;-77.052;2022-12-18T04:33:45;100530.28;;;9.14;44.02
6524;BME280;3295;38.928;-77.052;2022-12-18T04:36:13;100525.91;;;9.11;44.14
6524;BME280;3295;38.928;-77.052;2022-12-18T04:38:40;100523.28;;;9.10;43.68
6524;BME280;3295;38.928;-77.052;2022-12-18T04:41:08;100511.72;;;9.16;43.25
6524;BME280;3295;38.928;-77.052;2022-12-18T04:43:36;100508.19;;;9.13;45.07
6524;BME280;3295;38.928;-77.052;2022-12-18T04:46:05;100499.19;;;9.03;46.35
6524;BME280;3295;38.928;-77.052;2022-12-18T04:48:34;100498.41;;;9.04;45.75
6524;BME280;3295;38.928;-77.052;2022-12-18T04:51:03;100487.88;;;8.80;46.11
6524;BME280;3295;38.928;-77.052;2022-12-18T04:53:32;100504.00;;;8.81;47.30
6524;BME280;3295;38.928;-77.052;2022-12-18T04:56:04;100499.44;;;8.58;47.50
6524;BME280;3295;38.928;-77.052;2022-12-18T04:58:32;100499.88;;;8.67;46.36
6524;BME280;3295;38.928;-77.052;2022-12-18T05:01:01;100500.50;;;8.63;46.39
6524;BME280;3295;38.928;-77.052;2022-12-18T05:03:29;100496.56;;;8.68;45.92
6524;BME280;3295;38.928;-77.052;2022-12-18T05:06:09;100500.94;;;8.70;45.63
6524;BME280;3295;38.928;-77.052;2022-12-18T05:08:38;100494.25;;;8.72;45.81
6524;BME280;3295;38.928;-77.052;2022-12-18T05:11:11;100496.72;;;8.71;47.45
6524;BME280;3295;38.928;-77.052;2022-12-18T05:13:39;100487.72;;;8.61;47.08
6524;BME280;3295;38.928;-77.052;2022-12-18T05:16:08;100498.84;;;8.63;46.79
6524;BME280;3295;38.928;-77.052;2022-12-18T05:18:36;100477.25;;;8.55;47.21
6524;BME280;3295;38.928;-77.052;2022-12-18T05:21:04;100477.34;;;8.57;47.75
6524;BME280;3295;38.928;-77.052;2022-12-18T05:23:36;100486.06;;;8.62;47.07
6524;BME280;3295;38.928;-77.052;2022-12-18T05:26:05;100483.56;;;8.45;47.05
6524;BME280;3295;38.928;-77.052;2022-12-18T05:28:34;100503.94;;;8.63;47.37
6524;BME280;3295;38.928;-77.052;2022-12-18T05:31:05;100510.31;;;8.55;47.63
6524;BME280;3295;38.928;-77.052;2022-12-18T05:33:34;100524.03;;;8.75;47.51
6524;BME280;3295;38.928;-77.052;2022-12-18T05:36:03;100528.81;;;8.69;46.52
6524;BME280;3295;38.928;-77.052;2022-12-18T05:38:32;100536.09;;;8.63;46.59
6524;BME280;3295;38.928;-77.052;2022-12-18T05:41:02;100542.22;;;8.66;45.51
6524;BME280;3295;38.928;-77.052;2022-12-18T05:43:30;100544.16;;;8.70;45.37
6524;BME280;3295;38.928;-77.052;2022-12-18T05:46:01;100542.56;;;8.56;45.43
6524;BME280;3295;38.928;-77.052;2022-12-18T05:48:30;100544.38;;;8.59;46.16
6524;BME280;3295;38.928;-77.052;2022-12-18T05:51:06;100538.81;;;8.66;46.21
6524;BME280;3295;38.928;-77.052;2022-12-18T05:53:34;100542.31;;;8.68;46.16
6524;BME280;3295;38.928;-77.052;2022-12-18T05:56:05;100540.03;;;8.72;47.42
6524;BME280;3295;38.928;-77.052;2022-12-18T05:58:34;100544.38;;;8.75;46.99
6524;BME280;3295;38.928;-77.052;2022-12-18T06:01:07;100547.31;;;8.82;46.11
6524;BME280;3295;38.928;-77.052;2022-12-18T06:03:35;100544.84;;;8.84;45.70
6524;BME280;3295;38.928;-77.052;2022-12-18T06:06:03;100542.47;;;8.87;46.10
6524;BME280;3295;38.928;-77.052;2022-12-18T06:08:31;100547.41;;;8.84;46.48
6524;BME280;3295;38.928;-77.052;2022-12-18T06:10:59;100541.53;;;8.69;48.59
6524;BME280;3295;38.928;-77.052;2022-12-18T06:13:28;100549.13;;;8.52;49.79
6524;BME280;3295;38.928;-77.052;2022-12-18T06:15:56;100550.69;;;8.34;50.77
6524;BME280;3295;38.928;-77.052;2022-12-18T06:18:23;100549.38;;;8.26;50.64
6524;BME280;3295;38.928;-77.052;2022-12-18T06:20:55;100553.50;;;8.24;50.86
6524;BME280;3295;38.928;-77.052;2022-12-18T06:23:23;100550.97;;;8.24;51.60
6524;BME280;3295;38.928;-77.052;2022-12-18T06:25:51;100554.63;;;8.29;50.73
6524;BME280;3295;38.928;-77.052;2022-12-18T06:28:19;100558.06;;;8.30;50.22
6524;BME280;3295;38.928;-77.052;2022-12-18T06:30:48;100557.69;;;8.38;48.74
6524;BME280;3295;38.928;-77.052;2022-12-18T06:33:16;100547.53;;;8.38;50.00
6524;BME280;3295;38.928;-77.052;2022-12-18T06:35:44;100547.69;;;8.41;48.93
6524;BME280;3295;38.928;-77.052;2022-12-18T06:38:12;100554.53;;;8.42;48.84
6524;BME280;3295;38.928;-77.052;2022-12-18T06:40:40;100558.94;;;8.30;48.96
6524;BME280;3295;38.928;-77.052;2022-12-18T06:43:08;100571.38;;;8.26;50.03
6524;BME280;3295;38.928;-77.052;2022-12-18T06:45:36;100558.75;;;8.27;49.93
6524;BME280;3295;38.928;-77.052;2022-12-18T06:48:06;100569.34;;;8.35;49.27
6524;BME280;3295;38.928;-77.052;2022-12-18T06:50:42;100575.03;;;8.45;48.91
6524;BME280;3295;38.928;-77.052;2022-12-18T06:53:10;100576.91;;;8.49;47.70
6524;BME280;3295;38.928;-77.052;2022-12-18T06:55:38;100570.09;;;8.48;47.38
6524;BME280;3295;38.928;-77.052;2022-12-18T06:58:05;100571.19;;;8.37;49.06
6524;BME280;3295;38.928;-77.052;2022-12-18T07:00:47;100579.25;;;8.30;50.74
6524;BME280;3295;38.928;-77.052;2022-12-18T07:03:16;100580.00;;;8.13;53.81
6524;BME280;3295;38.928;-77.052;2022-12-18T07:05:44;100579.75;;;7.94;56.06
6524;BME280;3295;38.928;-77.052;2022-12-18T07:08:12;100565.72;;;7.69;56.75
6524;BME280;3295;38.928;-77.052;2022-12-18T07:10:59;100588.56;;;7.69;58.18
6524;BME280;3295;38.928;-77.052;2022-12-18T07:13:29;100595.06;;;7.64;57.74
6524;BME280;3295;38.928;-77.052;2022-12-18T07:16:07;100587.34;;;7.77;56.40
6524;BME280;3295;38.928;-77.052;2022-12-18T07:18:39;100566.75;;;7.88;55.12
6524;BME280;3295;38.928;-77.052;2022-12-18T07:21:09;100570.56;;;7.96;54.67
6524;BME280;3295;38.928;-77.052;2022-12-18T07:23:37;100574.25;;;8.01;53.54
6524;BME280;3295;38.928;-77.052;2022-12-18T07:26:07;100560.38;;;8.10;51.53
6524;BME280;3295;38.928;-77.052;2022-12-18T07:28:36;100562.84;;;8.09;52.25
6524;BME280;3295;38.928;-77.052;2022-12-18T07:31:05;100573.00;;;8.09;52.63
6524;BME280;3295;38.928;-77.052;2022-12-18T07:33:34;100576.53;;;7.96;54.46
6524;BME280;3295;38.928;-77.052;2022-12-18T07:36:05;100580.59;;;8.09;54.24
6524;BME280;3295;38.928;-77.052;2022-12-18T07:38:36;100588.09;;;8.06;53.13
6524;BME280;3295;38.928;-77.052;2022-12-18T07:41:06;100596.72;;;8.09;51.76
6524;BME280;3295;38.928;-77.052;2022-12-18T07:43:34;100593.97;;;8.21;50.71
6524;BME280;3295;38.928;-77.052;2022-12-18T07:46:02;100597.91;;;8.31;50.28
6524;BME280;3295;38.928;-77.052;2022-12-18T07:48:30;100590.81;;;8.25;49.25
6524;BME280;3295;38.928;-77.052;2022-12-18T07:50:59;100586.25;;;8.34;49.50
6524;BME280;3295;38.928;-77.052;2022-12-18T07:53:28;100577.34;;;8.26;56.26
6524;BME280;3295;38.928;-77.052;2022-12-18T07:56:33;100584.72;;;8.07;57.98
6524;BME280;3295;38.928;-77.052;2022-12-18T07:59:01;100592.19;;;8.04;58.49
6524;BME280;3295;38.928;-77.052;2022-12-18T08:01:29;100583.97;;;7.93;57.90
6524;BME280;3295;38.928;-77.052;2022-12-18T08:04:17;100580.91;;;7.99;58.17
6524;BME280;3295;38.928;-77.052;2022-12-18T08:06:45;100586.47;;;8.08;57.17
6524;BME280;3295;38.928;-77.052;2022-12-18T08:09:17;100579.81;;;8.10;56.53
6524;BME280;3295;38.928;-77.052;2022-12-18T08:11:45;100581.06;;;8.16;57.29
6524;BME280;3295;38.928;-77.052;2022-12-18T08:14:12;100588.91;;;8.21;55.57
6524;BME280;3295;38.928;-77.052;2022-12-18T08:16:41;100585.25;;;8.16;56.01
6524;BME280;3295;38.928;-77.052;2022-12-18T08:19:12;100584.03;;;8.09;55.57
6524;BME280;3295;38.928;-77.052;2022-12-18T08:21:40;100584.38;;;8.15;55.49
6524;BME280;3295;38.928;-77.052;2022-12-18T08:24:09;100581.53;;;8.26;54.43
6524;BME280;3295;38.928;-77.052;2022-12-18T08:29:59;100577.16;;;8.23;55.81
6524;BME280;3295;38.928;-77.052;2022-12-18T08:32:27;100586.63;;;8.26;57.30
6524;BME280;3295;38.928;-77.052;2022-12-18T08:34:55;100574.38;;;8.18;55.25
6524;BME280;3295;38.928;-77.052;2022-12-18T08:37:22;100572.28;;;8.11;55.34
6524;BME280;3295;38.928;-77.052;2022-12-18T08:39:50;100573.38;;;8.00;55.38
6524;BME280;3295;38.928;-77.052;2022-12-18T08:42:18;100572.50;;;8.00;54.75
6524;BME280;3295;38.928;-77.052;2022-12-18T08:45:05;100571.34;;;7.95;55.08
6524;BME280;3295;38.928;-77.052;2022-12-18T08:47:33;100574.78;;;7.95;54.44
6524;BME280;3295;38.928;-77.052;2022-12-18T08:50:01;100572.31;;;7.97;54.75
6524;BME280;3295;38.928;-77.052;2022-12-18T08:52:30;100570.56;;;7.96;54.93
6524;BME280;3295;38.928;-77.052;2022-12-18T08:54:58;100575.81;;;7.99;54.99
6524;BME280;3295;38.928;-77.052;2022-12-18T08:57:26;100577.41;;;7.97;54.17
6524;BME280;3295;38.928;-77.052;2022-12-18T08:59:54;100573.19;;;7.97;53.74
6524;BME280;3295;38.928;-77.052;2022-12-18T09:02:23;100570.22;;;8.04;53.65
6524;BME280;3295;38.928;-77.052;2022-12-18T09:04:50;100571.25;;;8.08;53.15
6524;BME280;3295;38.928;-77.052;2022-12-18T09:07:18;100563.44;;;8.19;52.90
6524;BME280;3295;38.928;-77.052;2022-12-18T09:09:46;100569.53;;;8.23;53.61
6524;BME280;3295;38.928;-77.052;2022-12-18T09:12:14;100555.38;;;8.12;54.35
6524;BME280;3295;38.928;-77.052;2022-12-18T09:14:42;100556.00;;;8.08;54.41
6524;BME280;3295;38.928;-77.052;2022-12-18T09:17:10;100567.78;;;7.91;55.98
6524;BME280;3295;38.928;-77.052;2022-12-18T09:19:39;100566.56;;;7.84;56.68
6524;BME280;3295;38.928;-77.052;2022-12-18T09:22:07;100563.59;;;7.92;56.84
6524;BME280;3295;38.928;-77.052;2022-12-18T09:24:35;100559.91;;;7.87;57.15
6524;BME280;3295;38.928;-77.052;2022-12-18T09:27:03;100561.41;;;7.83;57.39
6524;BME280;3295;38.928;-77.052;2022-12-18T09:29:30;100553.47;;;7.77;56.76
6524;BME280;3295;38.928;-77.052;2022-12-18T09:31:58;100562.75;;;7.76;58.34
6524;BME280;3295;38.928;-77.052;2022-12-18T09:34:26;100558.72;;;7.65;59.03
6524;BME280;3295;38.928;-77.052;2022-12-18T09:36:55;100565.53;;;7.66;60.69
6524;BME280;3295;38.928;-77.052;2022-12-18T09:39:23;100572.03;;;7.61;59.83
6524;BME280;3295;38.928;-77.052;2022-12-18T09:41:52;100573.78;;;7.62;55.76
6524;BME280;3295;38.928;-77.052;2022-12-18T09:44:24;100566.94;;;7.76;55.74
6524;BME280;3295;38.928;-77.052;2022-12-18T09:47:03;100568.31;;;7.85;55.05
6524;BME280;3295;38.928;-77.052;2022-12-18T09:49:35;100565.31;;;7.93;55.59
6524;BME280;3295;38.928;-77.052;2022-12-18T09:52:11;100564.97;;;8.01;55.63
6524;BME280;3295;38.928;-77.052;2022-12-18T09:54:42;100566.16;;;8.08;57.48
6524;BME280;3295;38.928;-77.052;2022-12-18T09:57:14;100561.47;;;7.99;55.89
6524;BME280;3295;38.928;-77.052;2022-12-18T09:59:45;100573.47;;;8.02;56.77
6524;BME280;3295;38.928;-77.052;2022-12-18T10:02:15;100579.25;;;7.84;55.36
6524;BME280;3295;38.928;-77.052;2022-12-18T10:04:52;100577.41;;;7.82;55.29
6524;BME280;3295;38.928;-77.052;2022-12-18T10:07:30;100588.44;;;7.97;54.25
6524;BME280;3295;38.928;-77.052;2022-12-18T10:10:06;100583.63;;;8.02;52.42
6524;BME280;3295;38.928;-77.052;2022-12-18T10:12:42;100585.97;;;7.99;51.97
6524;BME280;3295;38.928;-77.052;2022-12-18T10:15:19;100595.94;;;8.10;53.23
6524;BME280;3295;38.928;-77.052;2022-12-18T10:17:54;100601.59;;;7.75;52.16
6524;BME280;3295;38.928;-77.052;2022-12-18T10:20:32;100594.66;;;7.88;52.78
6524;BME280;3295;38.928;-77.052;2022-12-18T10:23:07;100591.78;;;7.81;51.39
6524;BME280;3295;38.928;-77.052;2022-12-18T10:25:53;100596.84;;;7.81;52.20
6524;BME280;3295;38.928;-77.052;2022-12-18T10:28:23;100597.72;;;7.82;52.04
6524;BME280;3295;38.928;-77.052;2022-12-18T10:30:52;100603.06;;;7.87;51.82
6524;BME280;3295;38.928;-77.052;2022-12-18T10:33:22;100610.22;;;7.94;52.14
6524;BME280;3295;38.928;-77.052;2022-12-18T10:35:52;100609.13;;;7.89;51.98
6524;BME280;3295;38.928;-77.052;2022-12-18T10:38:24;100607.19;;;7.84;52.17
6524;BME280;3295;38.928;-77.052;2022-12-18T10:40:55;100608.16;;;7.87;51.79
6524;BME280;3295;38.928;-77.052;2022-12-18T10:43:25;100614.28;;;7.75;52.23
6524;BME280;3295;38.928;-77.052;2022-12-18T10:46:03;100615.25;;;7.77;52.14
6524;BME280;3295;38.928;-77.052;2022-12-18T10:48:34;100619.97;;;7.71;52.60
6524;BME280;3295;38.928;-77.052;2022-12-18T10:51:04;100621.03;;;7.75;52.67
6524;BME280;3295;38.928;-77.052;2022-12-18T10:53:36;100622.69;;;7.74;52.60
6524;BME280;3295;38.928;-77.052;2022-12-18T10:56:05;100621.44;;;7.82;52.43
6524;BME280;3295;38.928;-77.052;2022-12-18T10:58:35;100619.28;;;7.74;52.17
6524;BME280;3295;38.928;-77.052;2022-12-18T11:01:07;100634.41;;;7.58;53.02
6524;BME280;3295;38.928;-77.052;2022-12-18T11:03:38;100641.66;;;7.66;52.76
6524;BME280;3295;38.928;-77.052;2022-12-18T11:06:09;100640.66;;;7.77;53.17
6524;BME280;3295;38.928;-77.052;2022-12-18T11:08:38;100643.88;;;7.75;52.94
6524;BME280;3295;38.928;-77.052;2022-12-18T11:11:14;100640.97;;;7.54;52.43
6524;BME280;3295;38.928;-77.052;2022-12-18T11:13:52;100651.13;;;7.54;53.42
6524;BME280;3295;38.928;-77.052;2022-12-18T11:16:22;100649.91;;;7.62;53.67
6524;BME280;3295;38.928;-77.052;2022-12-18T11:18:50;100656.03;;;7.66;53.19
6524;BME280;3295;38.928;-77.052;2022-12-18T11:21:17;100650.16;;;7.52;53.34
6524;BME280;3295;38.928;-77.052;2022-12-18T11:23:49;100665.56;;;7.55;53.10
6524;BME280;3295;38.928;-77.052;2022-12-18T11:26:18;100668.94;;;7.41;53.49
6524;BME280;3295;38.928;-77.052;2022-12-18T11:28:51;100669.97;;;7.30;53.64
6524;BME280;3295;38.928;-77.052;2022-12-18T11:31:23;100679.72;;;7.37;53.73
6524;BME280;3295;38.928;-77.052;2022-12-18T11:34:02;100676.06;;;7.19;54.05
6524;BME280;3295;38.928;-77.052;2022-12-18T11:36:32;100680.31;;;7.05;53.55
6524;BME280;3295;38.928;-77.052;2022-12-18T11:39:09;100682.47;;;6.99;53.45
6524;BME280;3295;38.928;-77.052;2022-12-18T11:41:45;100690.94;;;6.99;54.29
6524;BME280;3295;38.928;-77.052;2022-12-18T11:44:36;100688.22;;;7.09;53.85
6524;BME280;3295;38.928;-77.052;2022-12-18T11:47:11;100687.69;;;7.15;54.17
6524;BME280;3295;38.928;-77.052;2022-12-18T11:49:42;100689.00;;;7.08;53.80
6524;BME280;3295;38.928;-77.052;2022-12-18T11:52:15;100692.31;;;7.07;54.40
6524;BME280;3295;38.928;-77.052;2022-12-18T11:54:46;100698.06;;;7.05;53.85
6524;BME280;3295;38.928;-77.052;2022-12-18T11:57:26;100705.25;;;7.12;53.87
6524;BME280;3295;38.928;-77.052;2022-12-18T12:00:02;100701.38;;;7.04;54.31
6524;BME280;3295;38.928;-77.052;2022-12-18T12:02:52;100714.97;;;6.91;54.23
6524;BME280;3295;38.928;-77.052;2022-12-18T12:05:36;100720.03;;;6.91;54.48
6524;BME280;3295;38.928;-77.052;2022-12-18T12:08:14;100724.63;;;6.97;55.29
6524;BME280;3295;38.928;-77.052;2022-12-18T12:10:53;100727.22;;;6.98;54.53
6524;BME280;3295;38.928;-77.052;2022-12-18T12:13:34;100733.69;;;6.93;55.21
6524;BME280;3295;38.928;-77.052;2022-12-18T12:16:15;100731.66;;;6.74;55.15
6524;BME280;3295;38.928;-77.052;2022-12-18T12:18:55;100746.97;;;6.76;54.73
6524;BME280;3295;38.928;-77.052;2022-12-18T12:21:34;100741.69;;;6.73;54.71
6524;BME280;3295;38.928;-77.052;2022-12-18T12:24:12;100744.03;;;6.70;54.02
6524;BME280;3295;38.928;-77.052;2022-12-18T12:26:49;100749.91;;;6.69;54.01
6524;BME280;3295;38.928;-77.052;2022-12-18T12:29:29;100751.34;;;6.78;53.79
6524;BME280;3295;38.928;-77.052;2022-12-18T12:32:09;100747.84;;;6.24;53.73
6524;BME280;3295;38.928;-77.052;2022-12-18T12:34:47;100758.97;;;6.52;53.63
6524;BME280;3295;38.928;-77.052;2022-12-18T12:37:26;100748.31;;;6.58;52.92
6524;BME280;3295;38.928;-77.052;2022-12-18T12:40:01;100747.84;;;6.63;53.18
6524;BME280;3295;38.928;-77.052;2022-12-18T12:42:33;100744.22;;;6.73;53.32
6524;BME280;3295;38.928;-77.052;2022-12-18T12:45:29;100754.16;;;6.43;52.16
6524;BME280;3295;38.928;-77.052;2022-12-18T12:48:02;100752.34;;;6.54;51.96
6524;BME280;3295;38.928;-77.052;2022-12-18T12:50:34;100756.69;;;6.70;51.75
6524;BME280;3295;38.928;-77.052;2022-12-18T12:53:06;100756.34;;;6.64;51.67
6524;BME280;3295;38.928;-77.052;2022-12-18T12:55:36;100755.34;;;6.75;51.20
6524;BME280;3295;38.928;-77.052;2022-12-18T12:58:14;100749.97;;;6.84;50.31
6524;BME280;3295;38.928;-77.052;2022-12-18T13:00:50;100761.97;;;6.86;50.62
6524;BME280;3295;38.928;-77.052;2022-12-18T13:03:29;100761.97;;;6.47;49.88
6524;BME280;3295;38.928;-77.052;2022-12-18T13:06:07;100757.50;;;6.56;49.99
6524;BME280;3295;38.928;-77.052;2022-12-18T13:08:53;100761.69;;;6.68;50.02
6524;BME280;3295;38.928;-77.052;2022-12-18T13:11:39;100766.84;;;6.57;49.76
6524;BME280;3295;38.928;-77.052;2022-12-18T13:14:28;100769.38;;;6.70;49.15
6524;BME280;3295;38.928;-77.052;2022-12-18T13:20:06;100771.13;;;6.84;49.06
6524;BME280;3295;38.928;-77.052;2022-12-18T13:22:36;100768.31;;;6.66;48.88
6524;BME280;3295;38.928;-77.052;2022-12-18T13:25:29;100788.50;;;6.78;50.37
6524;BME280;3295;38.928;-77.052;2022-12-18T13:28:04;100778.03;;;6.87;48.33
6524;BME280;3295;38.928;-77.052;2022-12-18T13:30:55;100798.13;;;6.84;48.84